• Join FlightAware (Why Join?)
  • Login
  • US Flag 
01:31AM EST


 

Airport Tracker/Info


-or-


 

Live Flight TrackerFlight Track Log ✈ N449ND ✈ 12-Jun-2014 ✈ KSUA - KFPR

Flight Track Log - Related Links

Times and Time Zones

All times are in EDT time to prevent confusion due to time zone crossing. See the N449ND flight status page for this flight to view local times or setup timezone preferences in your user account.

Time Position Orientation Groundspeed Altitude Reporting Facility
EDT Latitude Longitude Course Direction KTS MPH feet Rate Location/Type
08:56PM 27.1972 -80.2169 North 54 62 800  Level Miami Center
08:57PM 27.2047 -80.2467 286° West 73 84 1,500 600 Climbing Miami Center
08:58PM 27.2175 -80.2606 316° Northwest 70 81 2,100 540 Climbing Miami Center
08:59PM 27.2378 -80.2669 344° North 71 82 2,700 420 Climbing Miami Center
09:00PM 27.2578 -80.2742 342° North 73 84 3,000 120 Climbing Miami Center
09:01PM 27.2645 -80.3000 North  Level FlightAware Approximate
09:01PM 27.2814 -80.2825 343° North 87 100 3,000  Level Miami Center
09:02PM 27.2978 -80.3053 309° West 98 113 3,000  Level Miami Center
09:03PM 27.3053 -80.3297 289° West 87 100 3,000  Level Miami Center
09:04PM 27.3150 -80.3583 291° West 91 105 3,000  Level Miami Center
09:05PM 27.3250 -80.3900 290° West 100 115 3,000  Level Miami Center
09:06PM 27.3344 -80.4158 292° West 96 110 3,000  Level Miami Center
09:07PM 27.3450 -80.4469 291° West 101 116 3,000  Level Miami Center
09:08PM 27.3564 -80.4772 293° West 101 116 3,000  Level Miami Center
09:09PM 27.3661 -80.5033 293° West 98 113 3,000  Level Miami Center
09:10PM 27.3739 -80.5339 286° West 97 112 3,000  Level Miami Center
09:11PM 27.3839 -80.5644 290° West 101 116 3,000  Level Miami Center
09:12PM 27.3925 -80.5914 290° West 99 114 3,000 -120 Level Miami Center
09:13PM 27.4086 -80.6158 307° West 100 115 2,800 -540 Descending Miami Center
09:14PM 27.4381 -80.6069 15° North 103 119 2,000 -420 Descending Miami Center
09:15PM 27.4675 -80.5997 12° North 109 125 2,000  Level Miami Center
09:16PM 27.4975 -80.5919 13° North 108 124 2,000  Level Miami Center